createdAt,value
2017-10-17T00:00:55.348Z,29.00
2017-10-17T00:03:23.628Z,21.70
2017-10-17T00:05:51.136Z,23.20
2017-10-17T00:08:18.672Z,24.57
2017-10-17T00:10:46.259Z,20.47
2017-10-17T00:13:13.776Z,22.87
2017-10-17T00:15:41.280Z,22.00
2017-10-17T00:18:08.804Z,30.60
2017-10-17T00:20:36.389Z,27.70
2017-10-17T00:23:03.906Z,15.40
2017-10-17T00:25:31.404Z,21.83
2017-10-17T00:27:58.916Z,17.33
2017-10-17T00:30:30.083Z,21.80
2017-10-17T00:32:58.355Z,13.93
2017-10-17T00:35:33.356Z,31.43
2017-10-17T00:38:02.717Z,20.60
2017-10-17T00:40:31.430Z,22.03
2017-10-17T00:43:00.860Z,23.63
2017-10-17T00:45:29.128Z,17.80
2017-10-17T00:47:57.145Z,18.60
2017-10-17T00:50:24.728Z,29.90
2017-10-17T00:52:52.239Z,27.70
2017-10-17T00:55:19.748Z,21.17
2017-10-17T00:57:47.276Z,32.57
2017-10-17T01:00:14.792Z,27.67
2017-10-17T01:02:42.509Z,22.13
2017-10-17T01:05:10.028Z,22.93
2017-10-17T01:07:37.540Z,25.50
2017-10-17T01:10:05.042Z,16.87
2017-10-17T01:12:32.548Z,23.53
2017-10-17T01:15:00.089Z,19.97
2017-10-17T01:17:27.594Z,16.73
2017-10-17T01:20:12.587Z,16.60
2017-10-17T01:22:40.088Z,15.87
2017-10-17T01:25:07.604Z,31.13
2017-10-17T01:27:35.115Z,22.93
2017-10-17T01:30:02.646Z,29.13
2017-10-17T01:32:30.152Z,29.30
2017-10-17T01:34:57.681Z,24.87
2017-10-17T01:37:25.181Z,28.07
2017-10-17T01:39:55.232Z,19.53
2017-10-17T01:42:26.199Z,23.40
2017-10-17T01:44:58.192Z,31.07
2017-10-17T01:47:27.117Z,26.23
2017-10-17T01:50:00.192Z,27.00
2017-10-17T01:52:27.881Z,27.20
2017-10-17T01:55:06.120Z,26.30
2017-10-17T01:57:56.275Z,19.90
2017-10-17T02:00:23.792Z,18.20
2017-10-17T02:02:51.299Z,31.73
2017-10-17T02:05:18.944Z,25.53
2017-10-17T02:07:46.467Z,24.73
2017-10-17T02:10:30.759Z,35.30
2017-10-17T02:12:58.272Z,28.03
2017-10-17T02:15:25.980Z,20.37
2017-10-17T02:18:04.450Z,30.63
2017-10-17T02:20:32.257Z,22.30
2017-10-17T02:23:00.025Z,25.40
2017-10-17T02:25:38.197Z,24.27
2017-10-17T02:31:16.544Z,35.87
2017-10-17T02:33:49.881Z,28.43
2017-10-17T02:36:17.516Z,27.37
2017-10-17T02:38:45.020Z,24.03
2017-10-17T02:41:12.528Z,21.10
2017-10-17T02:43:46.886Z,26.00
2017-10-17T02:46:14.405Z,25.30
2017-10-17T02:48:44.608Z,31.40
2017-10-17T02:51:12.113Z,29.63
2017-10-17T02:53:39.627Z,27.47
2017-10-17T02:56:07.141Z,23.10
2017-10-17T02:58:35.688Z,28.17
2017-10-17T03:01:05.199Z,22.87
2017-10-17T03:03:32.715Z,28.63
2017-10-17T03:06:00.509Z,33.93
2017-10-17T03:08:28.273Z,18.80
2017-10-17T03:10:55.813Z,31.17
2017-10-17T03:13:26.262Z,28.47
2017-10-17T03:15:53.779Z,31.67
2017-10-17T03:18:21.289Z,23.90
2017-10-17T03:21:01.294Z,24.13
2017-10-17T03:23:28.860Z,22.60
2017-10-17T03:25:56.440Z,22.87
2017-10-17T03:28:25.850Z,26.10
2017-10-17T03:30:53.367Z,36.57
2017-10-17T03:33:28.261Z,20.43
2017-10-17T03:35:55.777Z,32.20
2017-10-17T03:38:27.695Z,21.47
2017-10-17T03:43:53.750Z,23.50
2017-10-17T03:46:23.908Z,27.27
2017-10-17T03:48:51.420Z,21.07
2017-10-17T03:51:19.110Z,22.53
2017-10-17T03:53:48.536Z,23.13
2017-10-17T03:56:25.639Z,21.30
2017-10-17T03:58:54.852Z,27.27
2017-10-17T04:01:28.928Z,26.63
2017-10-17T04:04:04.164Z,26.20
2017-10-17T04:09:52.776Z,31.03
2017-10-17T04:12:23.056Z,32.00
2017-10-17T04:14:54.077Z,33.37
2017-10-17T04:17:32.191Z,30.50
2017-10-17T04:20:03.201Z,32.90
2017-10-17T04:22:34.384Z,23.53
2017-10-17T04:28:29.109Z,38.33
2017-10-17T04:31:10.080Z,30.20
2017-10-17T04:33:39.942Z,31.80
2017-10-17T04:36:12.992Z,31.63
2017-10-17T04:38:40.506Z,33.33
2017-10-17T04:41:08.000Z,28.50
2017-10-17T04:43:45.140Z,29.57
2017-10-17T04:46:23.261Z,27.13
2017-10-17T04:48:55.555Z,45.43
2017-10-17T04:51:27.616Z,38.80
2017-10-17T04:54:16.728Z,38.83
2017-10-17T04:56:59.386Z,41.93
2017-10-17T04:59:41.792Z,34.47
2017-10-17T05:02:12.109Z,36.20
2017-10-17T05:04:41.413Z,35.10
2017-10-17T05:07:19.940Z,35.20
2017-10-17T05:10:00.300Z,35.87
2017-10-17T05:12:27.821Z,41.67
2017-10-17T05:14:55.328Z,40.50
2017-10-17T05:17:40.397Z,32.47
2017-10-17T05:20:17.469Z,37.63
2017-10-17T05:22:45.177Z,36.20
2017-10-17T05:25:18.524Z,34.80
2017-10-17T05:30:43.585Z,40.80
2017-10-17T05:33:27.497Z,36.23
2017-10-17T05:35:55.045Z,37.80
2017-10-17T05:38:22.548Z,33.43
2017-10-17T05:40:50.251Z,45.13
2017-10-17T05:43:23.893Z,37.30
2017-10-17T05:45:51.401Z,38.17
2017-10-17T05:48:18.917Z,40.77
2017-10-17T05:50:54.120Z,37.10
2017-10-17T05:53:21.637Z,35.97
2017-10-17T05:55:49.140Z,35.40
2017-10-17T05:58:16.895Z,29.33
2017-10-17T06:00:44.396Z,40.13
2017-10-17T06:03:11.908Z,45.53
2017-10-17T06:05:39.424Z,40.40
2017-10-17T06:08:06.938Z,40.47
2017-10-17T06:10:34.454Z,38.53
2017-10-17T06:13:01.985Z,40.53
2017-10-17T06:15:29.798Z,38.27
2017-10-17T06:17:57.323Z,24.93
2017-10-17T06:20:24.925Z,39.97
2017-10-17T06:22:52.442Z,35.33
2017-10-17T06:25:19.940Z,32.97
2017-10-17T06:27:47.447Z,39.40
2017-10-17T06:30:15.719Z,35.13
2017-10-17T06:32:43.422Z,39.50
2017-10-17T06:35:10.916Z,40.57
2017-10-17T06:37:38.643Z,29.73
2017-10-17T06:40:06.248Z,35.37
2017-10-17T06:42:34.515Z,28.87
2017-10-17T06:45:02.256Z,26.77
2017-10-17T06:47:29.782Z,29.93
2017-10-17T06:49:57.313Z,37.23
2017-10-17T06:52:25.576Z,42.90
2017-10-17T06:54:53.091Z,29.10
2017-10-17T06:57:20.596Z,31.23
2017-10-17T06:59:49.174Z,29.73
2017-10-17T07:02:16.673Z,37.30
2017-10-17T07:04:44.189Z,34.83
2017-10-17T07:07:11.680Z,45.70
2017-10-17T07:09:39.681Z,39.40
2017-10-17T07:12:07.324Z,34.83
2017-10-17T07:14:34.824Z,40.10
2017-10-17T07:17:02.560Z,36.73
2017-10-17T07:19:30.126Z,47.73
2017-10-17T07:21:57.631Z,37.87
2017-10-17T07:24:25.905Z,42.63
2017-10-17T07:26:53.433Z,31.87
2017-10-17T07:29:21.076Z,31.23
2017-10-17T07:31:48.583Z,36.10
2017-10-17T07:34:16.600Z,40.13
2017-10-17T07:36:44.233Z,31.13
2017-10-17T07:39:11.828Z,36.53
2017-10-17T07:41:39.337Z,33.40
2017-10-17T07:44:06.875Z,32.43
2017-10-17T07:46:35.148Z,23.60
2017-10-17T07:49:03.489Z,37.53
2017-10-17T07:51:31.004Z,44.20
2017-10-17T07:53:58.732Z,40.17
2017-10-17T07:56:26.476Z,32.93
2017-10-17T07:58:53.984Z,40.33
2017-10-17T08:01:21.493Z,40.23
2017-10-17T08:03:48.996Z,29.83
2017-10-17T08:06:17.276Z,33.67
2017-10-17T08:08:44.794Z,43.53
2017-10-17T08:11:12.416Z,34.53
2017-10-17T08:13:39.924Z,36.40
2017-10-17T08:16:07.609Z,39.97
2017-10-17T08:18:35.112Z,42.37
2017-10-17T08:21:02.620Z,26.07
2017-10-17T08:23:30.948Z,31.87
2017-10-17T08:25:58.451Z,30.93
2017-10-17T08:28:26.790Z,27.97
2017-10-17T08:30:54.408Z,26.93
2017-10-17T08:33:21.972Z,30.90
2017-10-17T08:35:49.475Z,31.97
2017-10-17T08:38:16.996Z,45.70
2017-10-17T08:40:44.505Z,32.27
2017-10-17T08:43:12.160Z,29.17
2017-10-17T08:45:39.660Z,38.33
2017-10-17T08:48:07.172Z,38.17
2017-10-17T08:50:34.688Z,27.17
2017-10-17T08:53:02.207Z,29.47
2017-10-17T08:55:29.716Z,26.97
2017-10-17T08:57:57.570Z,29.80
2017-10-17T09:00:25.064Z,42.97
2017-10-17T09:02:52.688Z,37.67
2017-10-17T09:05:20.471Z,36.30
2017-10-17T09:07:47.977Z,39.47
2017-10-17T09:10:15.692Z,35.27
2017-10-17T09:12:43.820Z,36.33
2017-10-17T09:15:11.340Z,31.33
2017-10-17T09:17:38.845Z,28.00
2017-10-17T09:20:06.414Z,39.93
2017-10-17T09:22:34.128Z,31.63
2017-10-17T09:25:01.651Z,23.03
2017-10-17T09:27:29.424Z,25.70
2017-10-17T09:29:57.892Z,32.83
2017-10-17T09:32:25.573Z,38.37
2017-10-17T09:34:53.072Z,30.17
2017-10-17T09:37:20.579Z,27.63
2017-10-17T09:39:48.098Z,39.00
2017-10-17T09:42:16.368Z,29.23
2017-10-17T09:44:44.080Z,29.60
2017-10-17T09:47:11.588Z,31.03
2017-10-17T09:49:39.096Z,24.77
2017-10-17T09:52:06.641Z,22.93
2017-10-17T09:54:34.148Z,21.37
2017-10-17T09:57:01.656Z,32.80
2017-10-17T09:59:29.161Z,28.73
2017-10-17T10:01:56.670Z,35.77
2017-10-17T10:04:24.333Z,32.03
2017-10-17T10:06:51.844Z,28.90
2017-10-17T10:09:19.511Z,27.87
2017-10-17T10:11:47.508Z,39.30
2017-10-17T10:14:15.050Z,26.67
2017-10-17T10:16:42.861Z,28.13
2017-10-17T10:19:10.783Z,48.70
2017-10-17T10:21:38.399Z,42.03
2017-10-17T10:24:05.913Z,28.20
2017-10-17T10:26:33.575Z,30.20
2017-10-17T10:29:01.076Z,42.60
2017-10-17T10:31:28.821Z,35.37
2017-10-17T10:33:56.583Z,39.03
2017-10-17T10:36:24.107Z,34.73
2017-10-17T10:38:52.253Z,29.93
2017-10-17T10:41:20.521Z,28.07
2017-10-17T10:43:48.040Z,38.40
2017-10-17T10:46:15.539Z,34.47
2017-10-17T10:48:43.056Z,33.67
2017-10-17T10:51:10.907Z,23.17
2017-10-17T10:53:38.636Z,31.20
2017-10-17T10:56:06.146Z,30.93
2017-10-17T10:58:33.636Z,37.10
2017-10-17T11:01:01.342Z,29.53
2017-10-17T11:03:29.138Z,30.67
2017-10-17T11:05:56.645Z,25.80
2017-10-17T11:08:24.149Z,34.57
2017-10-17T11:10:51.655Z,48.70
2017-10-17T11:13:19.920Z,33.33
2017-10-17T11:15:47.617Z,51.07
2017-10-17T11:18:15.121Z,32.93
2017-10-17T11:20:42.637Z,37.53
2017-10-17T11:23:10.364Z,33.53
2017-10-17T11:25:37.869Z,27.30
2017-10-17T11:28:05.561Z,26.53
2017-10-17T11:30:33.079Z,30.23
2017-10-17T11:33:00.732Z,24.87
2017-10-17T11:35:28.233Z,31.70
2017-10-17T11:37:56.000Z,18.40
2017-10-17T11:40:35.328Z,35.13
2017-10-17T11:43:14.824Z,21.93
2017-10-17T11:45:42.328Z,26.40
2017-10-17T11:48:09.840Z,33.27
2017-10-17T11:50:37.345Z,23.90
2017-10-17T11:53:04.996Z,27.63
2017-10-17T11:55:32.519Z,26.13
2017-10-17T11:58:00.017Z,27.37
2017-10-17T12:00:27.534Z,36.30
2017-10-17T12:02:55.100Z,29.63
2017-10-17T12:05:22.616Z,23.07
2017-10-17T12:07:50.353Z,35.83
2017-10-17T12:10:17.856Z,30.60
2017-10-17T12:12:45.379Z,27.17
2017-10-17T12:15:13.492Z,27.47
2017-10-17T12:17:41.002Z,35.60
2017-10-17T12:20:08.504Z,21.63
2017-10-17T12:22:36.305Z,22.60
2017-10-17T12:25:03.820Z,27.13
2017-10-17T12:27:31.333Z,24.70
2017-10-17T12:29:58.834Z,29.80
2017-10-17T12:32:26.345Z,31.17
2017-10-17T12:34:53.869Z,29.30
2017-10-17T12:37:22.089Z,33.67
2017-10-17T12:39:49.595Z,33.30
2017-10-17T12:42:17.191Z,29.00
2017-10-17T12:44:44.692Z,27.00
2017-10-17T12:47:12.201Z,25.43
2017-10-17T12:49:39.708Z,38.10
2017-10-17T12:52:08.076Z,31.27
2017-10-17T12:54:36.344Z,36.47
2017-10-17T12:57:04.886Z,30.70
2017-10-17T12:59:32.392Z,45.90
2017-10-17T13:01:59.905Z,24.23
2017-10-17T13:04:27.408Z,31.93
2017-10-17T13:06:55.517Z,35.97
2017-10-17T13:09:23.204Z,29.87
2017-10-17T13:11:50.705Z,24.33
2017-10-17T13:14:18.297Z,26.37
2017-10-17T13:16:45.788Z,35.97
2017-10-17T13:19:13.307Z,25.03
2017-10-17T13:21:40.800Z,24.73
2017-10-17T13:24:08.313Z,34.73
2017-10-17T13:26:36.008Z,40.77
2017-10-17T13:29:03.776Z,40.13
2017-10-17T13:31:31.280Z,31.67
2017-10-17T13:33:58.903Z,30.40
2017-10-17T13:36:26.411Z,25.47
2017-10-17T13:38:53.920Z,32.30
2017-10-17T13:41:21.420Z,32.07
2017-10-17T13:43:48.948Z,42.67
2017-10-17T13:46:16.584Z,33.67
2017-10-17T13:48:44.692Z,34.20
2017-10-17T13:51:12.196Z,28.53
2017-10-17T13:53:39.695Z,34.67
2017-10-17T13:56:07.302Z,31.60
2017-10-17T13:58:34.800Z,23.90
2017-10-17T14:01:02.333Z,30.37
2017-10-17T14:03:29.829Z,22.00
2017-10-17T14:05:57.344Z,38.73
2017-10-17T14:08:24.848Z,29.73
2017-10-17T14:10:52.360Z,28.97
2017-10-17T14:13:19.863Z,35.00
2017-10-17T14:15:47.384Z,25.87
2017-10-17T14:18:14.888Z,36.27
2017-10-17T14:20:43.444Z,28.80
2017-10-17T14:23:10.954Z,39.73
2017-10-17T14:25:38.547Z,29.63
2017-10-17T14:28:06.060Z,36.17
2017-10-17T14:30:33.593Z,38.27
2017-10-17T14:33:01.108Z,33.20
2017-10-17T14:35:28.757Z,32.70
2017-10-17T14:37:56.387Z,31.57
2017-10-17T14:40:24.655Z,22.50
2017-10-17T14:42:52.164Z,31.70
2017-10-17T14:45:19.669Z,30.50
2017-10-17T14:47:47.944Z,30.73
2017-10-17T14:50:15.448Z,53.03
2017-10-17T14:52:42.960Z,21.00
2017-10-17T14:55:11.236Z,25.67
2017-10-17T14:57:38.749Z,28.53
2017-10-17T15:00:06.380Z,15.43
2017-10-17T15:02:34.189Z,29.23
2017-10-17T15:05:01.944Z,30.90
2017-10-17T15:07:29.472Z,29.60
2017-10-17T15:09:57.144Z,43.27
2017-10-17T15:12:24.676Z,28.47
2017-10-17T15:14:52.191Z,27.00
2017-10-17T15:17:20.171Z,27.70
2017-10-17T15:19:47.672Z,44.73
2017-10-17T15:22:15.177Z,46.60
2017-10-17T15:24:42.825Z,44.33
2017-10-17T15:27:10.331Z,36.87
2017-10-17T15:29:38.288Z,47.57
2017-10-17T15:32:06.116Z,31.53
2017-10-17T15:34:33.636Z,38.53
2017-10-17T15:37:01.344Z,29.20
2017-10-17T15:39:29.356Z,33.53
2017-10-17T15:41:57.169Z,34.20
2017-10-17T15:44:24.672Z,33.37
2017-10-17T15:46:52.420Z,25.93
2017-10-17T15:49:19.925Z,36.57
2017-10-17T15:51:47.572Z,27.57
2017-10-17T15:54:15.080Z,40.50
2017-10-17T15:56:42.609Z,26.67
2017-10-17T15:59:10.261Z,22.33
2017-10-17T16:01:37.756Z,28.00
2017-10-17T16:04:05.510Z,53.40
2017-10-17T16:06:33.024Z,28.70
2017-10-17T16:09:00.553Z,35.80
2017-10-17T16:11:28.085Z,36.60
2017-10-17T16:13:55.720Z,31.17
2017-10-17T16:16:23.217Z,35.73
2017-10-17T16:18:50.840Z,29.67
2017-10-17T16:21:18.348Z,33.13
2017-10-17T16:23:46.084Z,31.50
2017-10-17T16:26:13.616Z,32.80
2017-10-17T16:28:41.303Z,37.40
2017-10-17T16:31:08.856Z,36.40
2017-10-17T16:33:36.522Z,47.10
2017-10-17T16:36:04.034Z,32.53
2017-10-17T16:38:31.721Z,45.57
2017-10-17T16:40:59.225Z,29.23
2017-10-17T16:43:26.733Z,28.23
2017-10-17T16:45:54.260Z,30.27
2017-10-17T16:48:22.975Z,28.17
2017-10-17T16:50:50.480Z,33.53
2017-10-17T16:53:18.011Z,25.63
2017-10-17T16:55:45.522Z,37.00
2017-10-17T16:58:13.232Z,47.30
2017-10-17T17:00:41.004Z,24.70
2017-10-17T17:03:08.944Z,46.50
2017-10-17T17:05:36.448Z,34.87
2017-10-17T17:08:03.985Z,26.67
2017-10-17T17:10:31.776Z,28.37
2017-10-17T17:12:59.512Z,32.43
2017-10-17T17:15:27.695Z,25.27
2017-10-17T17:17:55.204Z,22.07
2017-10-17T17:20:22.712Z,44.83
2017-10-17T17:22:50.216Z,24.20
2017-10-17T17:25:18.016Z,34.87
2017-10-17T17:27:45.524Z,36.23
2017-10-17T17:30:13.032Z,39.97
2017-10-17T17:32:40.571Z,39.73
2017-10-17T17:35:08.152Z,29.70
2017-10-17T17:37:36.367Z,44.70
2017-10-17T17:40:03.868Z,31.90
2017-10-17T17:42:31.405Z,20.47
2017-10-17T17:44:59.215Z,33.13
2017-10-17T17:47:26.726Z,37.07
2017-10-17T17:49:54.224Z,35.80
2017-10-17T17:52:22.020Z,30.00
2017-10-17T17:54:49.662Z,27.87
2017-10-17T17:57:17.168Z,41.67
2017-10-17T17:59:44.673Z,44.17
2017-10-17T18:02:12.328Z,36.97
2017-10-17T18:04:39.841Z,39.50
2017-10-17T18:07:07.342Z,44.27
2017-10-17T18:09:34.864Z,40.57
2017-10-17T18:12:02.421Z,44.77
2017-10-17T18:14:29.928Z,29.30
2017-10-17T18:16:57.438Z,47.80
2017-10-17T18:19:25.136Z,37.77
2017-10-17T18:21:52.647Z,31.03
2017-10-17T18:24:20.162Z,36.87
2017-10-17T18:26:47.790Z,33.93
2017-10-17T18:29:15.409Z,29.13
2017-10-17T18:31:43.680Z,39.23
2017-10-17T18:34:11.184Z,46.03
2017-10-17T18:36:38.864Z,25.83
2017-10-17T18:39:06.360Z,55.13
2017-10-17T18:41:34.031Z,30.93
2017-10-17T18:44:01.732Z,49.23
2017-10-17T18:46:29.304Z,53.17
2017-10-17T18:48:57.068Z,52.03
2017-10-17T18:51:24.603Z,55.27
2017-10-17T18:53:52.100Z,34.37
2017-10-17T18:56:19.749Z,37.17
2017-10-17T18:58:47.250Z,36.43
2017-10-17T19:01:14.986Z,41.40
2017-10-17T19:03:42.472Z,42.47
2017-10-17T19:06:09.997Z,43.47
2017-10-17T19:08:37.552Z,46.90
2017-10-17T19:11:05.063Z,32.97
2017-10-17T19:13:33.473Z,50.90
2017-10-17T19:16:01.419Z,39.30
2017-10-17T19:18:28.999Z,51.60
2017-10-17T19:20:56.512Z,49.43
2017-10-17T19:23:24.018Z,41.20
2017-10-17T19:25:51.554Z,32.57
2017-10-17T19:28:19.260Z,57.17
2017-10-17T19:30:46.768Z,52.03
2017-10-17T19:33:14.330Z,35.07
2017-10-17T19:35:41.837Z,58.63
2017-10-17T19:38:09.353Z,70.53
2017-10-17T19:40:36.925Z,37.53
2017-10-17T19:43:04.464Z,33.57
2017-10-17T19:45:32.896Z,34.60
2017-10-17T19:48:00.452Z,59.40
2017-10-17T19:50:28.267Z,50.67
2017-10-17T19:52:55.808Z,45.83
2017-10-17T19:55:23.303Z,40.80
2017-10-17T19:57:50.942Z,45.03
2017-10-17T20:00:18.435Z,40.47
2017-10-17T20:02:45.957Z,46.03
2017-10-17T20:05:13.927Z,58.63
2017-10-17T20:07:42.583Z,54.57
2017-10-17T20:10:10.848Z,48.67
2017-10-17T20:12:38.582Z,48.97
2017-10-17T20:15:06.114Z,46.43
2017-10-17T20:17:33.611Z,43.50
2017-10-17T20:20:01.305Z,50.13
2017-10-17T20:22:28.809Z,54.30
2017-10-17T20:24:56.328Z,48.57
2017-10-17T20:27:23.924Z,34.37
2017-10-17T20:29:51.687Z,51.50
2017-10-17T20:32:19.203Z,42.63
2017-10-17T20:34:46.712Z,44.57
2017-10-17T20:37:14.204Z,44.67
2017-10-17T20:39:42.584Z,40.17
2017-10-17T20:44:45.440Z,55.87
2017-10-17T20:47:12.959Z,42.10
2017-10-17T20:49:40.477Z,45.30
2017-10-17T20:52:08.023Z,50.63
2017-10-17T20:54:35.526Z,46.07
2017-10-17T20:57:03.040Z,64.90
2017-10-17T20:59:30.550Z,71.57
2017-10-17T21:01:58.055Z,35.00
2017-10-17T21:04:25.578Z,64.53
2017-10-17T21:06:53.984Z,50.70
2017-10-17T21:09:21.483Z,66.00
2017-10-17T21:11:49.074Z,51.87
2017-10-17T21:14:16.656Z,45.90
2017-10-17T21:16:44.165Z,37.87
2017-10-17T21:19:11.876Z,51.40
2017-10-17T21:21:39.410Z,61.77
2017-10-17T21:24:06.909Z,57.57
2017-10-17T21:26:34.421Z,54.33
2017-10-17T21:29:01.984Z,56.73
2017-10-17T21:31:29.485Z,52.17
2017-10-17T21:33:57.232Z,45.40
2017-10-17T21:36:24.728Z,56.47
2017-10-17T21:38:52.249Z,54.80
2017-10-17T21:41:19.756Z,58.50
2017-10-17T21:43:47.348Z,45.53
2017-10-17T21:46:14.864Z,47.87
2017-10-17T21:48:42.380Z,55.93
2017-10-17T21:51:09.889Z,42.37
2017-10-17T21:53:39.220Z,43.37
2017-10-17T21:56:06.728Z,47.03
2017-10-17T21:58:34.240Z,47.80
2017-10-17T22:01:03.588Z,55.40
2017-10-17T22:03:31.351Z,36.93
2017-10-17T22:05:59.096Z,50.40
2017-10-17T22:08:26.842Z,52.03
2017-10-17T22:10:54.348Z,42.17
2017-10-17T22:13:22.063Z,53.67
2017-10-17T22:15:49.577Z,47.67
2017-10-17T22:18:17.287Z,49.37
2017-10-17T22:20:44.805Z,38.20
2017-10-17T22:23:12.307Z,61.77
2017-10-17T22:25:39.969Z,47.83
2017-10-17T22:28:07.475Z,50.07
2017-10-17T22:30:34.976Z,62.33
2017-10-17T22:33:02.488Z,66.50
2017-10-17T22:35:30.009Z,68.00
2017-10-17T22:37:58.448Z,48.13
2017-10-17T22:40:25.953Z,52.87
2017-10-17T22:42:53.575Z,67.63
2017-10-17T22:45:21.091Z,43.17
2017-10-17T22:47:48.610Z,48.47
2017-10-17T22:50:16.369Z,54.10
2017-10-17T22:52:43.880Z,37.87
2017-10-17T22:55:11.400Z,59.67
2017-10-17T22:57:39.013Z,52.93
2017-10-17T23:00:06.810Z,50.80
2017-10-17T23:02:34.567Z,46.43
2017-10-17T23:05:02.125Z,40.83
2017-10-17T23:07:29.796Z,59.27
2017-10-17T23:09:57.310Z,57.77
2017-10-17T23:12:25.013Z,48.10
2017-10-17T23:14:52.531Z,42.27
2017-10-17T23:17:31.915Z,61.53
2017-10-17T23:20:11.346Z,36.37
2017-10-17T23:22:39.115Z,49.03
2017-10-17T23:25:06.875Z,46.57
2017-10-17T23:27:34.640Z,48.63
2017-10-17T23:30:02.154Z,50.67
2017-10-17T23:32:29.659Z,45.13
2017-10-17T23:34:57.308Z,37.30
2017-10-17T23:37:24.820Z,48.13
2017-10-17T23:39:53.207Z,47.10
2017-10-17T23:42:21.460Z,58.03
2017-10-17T23:44:48.988Z,56.97
2017-10-17T23:47:16.737Z,53.40
2017-10-17T23:49:44.941Z,47.37
2017-10-17T23:52:12.454Z,58.27
2017-10-17T23:54:40.029Z,60.60
2017-10-17T23:57:07.533Z,58.10
2017-10-17T23:59:35.043Z,44.37
